sensor_id;sensor_type;location;lat;lon;timestamp;temperature;humidity
36660;DHT22;22654;51.054;3.654;2022-07-10T00:01:27;12.70;99.90
36660;DHT22;22654;51.054;3.654;2022-07-10T00:03:53;12.70;99.90
36660;DHT22;22654;51.054;3.654;2022-07-10T00:06:19;12.60;99.90
36660;DHT22;22654;51.054;3.654;2022-07-10T00:08:45;12.50;99.90
36660;DHT22;22654;51.054;3.654;2022-07-10T00:11:12;12.50;99.90
36660;DHT22;22654;51.054;3.654;2022-07-10T00:13:38;12.40;99.90
36660;DHT22;22654;51.054;3.654;2022-07-10T00:16:04;12.40;99.90
36660;DHT22;22654;51.054;3.654;2022-07-10T00:18:30;12.40;99.90
36660;DHT22;22654;51.054;3.654;2022-07-10T00:20:56;12.20;99.90
36660;DHT22;22654;51.054;3.654;2022-07-10T00:23:22;12.20;99.90
36660;DHT22;22654;51.054;3.654;2022-07-10T00:25:47;12.20;99.90
36660;DHT22;22654;51.054;3.654;2022-07-10T00:28:13;12.10;99.90
36660;DHT22;22654;51.054;3.654;2022-07-10T00:30:39;12.00;99.90
36660;DHT22;22654;51.054;3.654;2022-07-10T00:33:05;12.10;99.90
36660;DHT22;22654;51.054;3.654;2022-07-10T00:35:31;12.20;99.90
36660;DHT22;22654;51.054;3.654;2022-07-10T00:37:57;12.30;99.90
36660;DHT22;22654;51.054;3.654;2022-07-10T00:40:23;12.40;99.90
36660;DHT22;22654;51.054;3.654;2022-07-10T00:42:48;12.50;99.90
36660;DHT22;22654;51.054;3.654;2022-07-10T00:45:15;12.60;99.90
36660;DHT22;22654;51.054;3.654;2022-07-10T00:47:41;12.60;99.90
36660;DHT22;22654;51.054;3.654;2022-07-10T00:50:07;12.60;99.90
36660;DHT22;22654;51.054;3.654;2022-07-10T00:52:35;12.50;99.90
36660;DHT22;22654;51.054;3.654;2022-07-10T00:55:05;12.30;99.90
36660;DHT22;22654;51.054;3.654;2022-07-10T00:57:31;12.20;99.90
36660;DHT22;22654;51.054;3.654;2022-07-10T00:59:58;12.20;99.90
36660;DHT22;22654;51.054;3.654;2022-07-10T01:02:27;12.10;99.90
36660;DHT22;22654;51.054;3.654;2022-07-10T01:04:57;12.10;99.90
36660;DHT22;22654;51.054;3.654;2022-07-10T01:07:28;12.20;99.90
36660;DHT22;22654;51.054;3.654;2022-07-10T01:09:56;12.30;99.90
36660;DHT22;22654;51.054;3.654;2022-07-10T01:12:22;12.20;99.90
36660;DHT22;22654;51.054;3.654;2022-07-10T01:14:48;12.20;99.90
36660;DHT22;22654;51.054;3.654;2022-07-10T01:17:14;12.20;99.90
36660;DHT22;22654;51.054;3.654;2022-07-10T01:19:40;12.10;99.90
36660;DHT22;22654;51.054;3.654;2022-07-10T01:22:06;12.00;99.90
36660;DHT22;22654;51.054;3.654;2022-07-10T01:24:32;12.00;99.90
36660;DHT22;22654;51.054;3.654;2022-07-10T01:26:58;12.00;99.90
36660;DHT22;22654;51.054;3.654;2022-07-10T01:29:24;11.90;99.90
36660;DHT22;22654;51.054;3.654;2022-07-10T01:31:50;11.90;99.90
36660;DHT22;22654;51.054;3.654;2022-07-10T01:34:16;11.80;99.90
36660;DHT22;22654;51.054;3.654;2022-07-10T01:36:49;11.70;99.90
36660;DHT22;22654;51.054;3.654;2022-07-10T01:39:14;11.70;99.90
36660;DHT22;22654;51.054;3.654;2022-07-10T01:41:43;11.70;99.90
36660;DHT22;22654;51.054;3.654;2022-07-10T01:44:12;11.70;99.90
36660;DHT22;22654;51.054;3.654;2022-07-10T01:46:51;11.70;99.90
36660;DHT22;22654;51.054;3.654;2022-07-10T01:49:17;11.70;99.90
36660;DHT22;22654;51.054;3.654;2022-07-10T01:51:42;11.60;99.90
36660;DHT22;22654;51.054;3.654;2022-07-10T01:54:08;11.60;99.90
36660;DHT22;22654;51.054;3.654;2022-07-10T01:56:34;11.60;99.90
36660;DHT22;22654;51.054;3.654;2022-07-10T01:59:00;11.60;99.90
36660;DHT22;22654;51.054;3.654;2022-07-10T02:01:28;11.50;99.90
36660;DHT22;22654;51.054;3.654;2022-07-10T02:03:54;11.60;99.90
36660;DHT22;22654;51.054;3.654;2022-07-10T02:06:45;11.60;99.90
36660;DHT22;22654;51.054;3.654;2022-07-10T02:09:13;11.60;99.90
36660;DHT22;22654;51.054;3.654;2022-07-10T02:11:44;11.60;99.90
36660;DHT22;22654;51.054;3.654;2022-07-10T02:14:10;11.50;99.90
36660;DHT22;22654;51.054;3.654;2022-07-10T02:16:35;11.50;99.90
36660;DHT22;22654;51.054;3.654;2022-07-10T02:19:02;11.40;99.90
36660;DHT22;22654;51.054;3.654;2022-07-10T02:21:28;11.40;99.90
36660;DHT22;22654;51.054;3.654;2022-07-10T02:23:53;11.30;99.90
36660;DHT22;22654;51.054;3.654;2022-07-10T02:26:19;11.20;99.90
36660;DHT22;22654;51.054;3.654;2022-07-10T02:28:45;11.20;99.90
36660;DHT22;22654;51.054;3.654;2022-07-10T02:31:11;11.20;99.90
36660;DHT22;22654;51.054;3.654;2022-07-10T02:33:37;11.20;99.90
36660;DHT22;22654;51.054;3.654;2022-07-10T02:36:04;11.20;99.90
36660;DHT22;22654;51.054;3.654;2022-07-10T02:38:30;11.20;99.90
36660;DHT22;22654;51.054;3.654;2022-07-10T02:40:55;11.20;99.90
36660;DHT22;22654;51.054;3.654;2022-07-10T02:43:21;11.20;99.90
36660;DHT22;22654;51.054;3.654;2022-07-10T02:45:47;11.20;99.90
36660;DHT22;22654;51.054;3.654;2022-07-10T02:48:16;11.20;99.90
36660;DHT22;22654;51.054;3.654;2022-07-10T02:50:43;11.20;99.90
36660;DHT22;22654;51.054;3.654;2022-07-10T02:53:09;11.20;99.90
36660;DHT22;22654;51.054;3.654;2022-07-10T02:55:35;11.10;99.90
36660;DHT22;22654;51.054;3.654;2022-07-10T02:58:01;11.10;99.90
36660;DHT22;22654;51.054;3.654;2022-07-10T03:00:27;11.10;99.90
36660;DHT22;22654;51.054;3.654;2022-07-10T03:02:54;11.00;99.90
36660;DHT22;22654;51.054;3.654;2022-07-10T03:05:21;11.00;99.90
36660;DHT22;22654;51.054;3.654;2022-07-10T03:07:47;11.00;99.90
36660;DHT22;22654;51.054;3.654;2022-07-10T03:10:13;10.90;99.90
36660;DHT22;22654;51.054;3.654;2022-07-10T03:12:38;10.90;99.90
36660;DHT22;22654;51.054;3.654;2022-07-10T03:15:05;10.90;99.90
36660;DHT22;22654;51.054;3.654;2022-07-10T03:17:32;10.90;99.90
36660;DHT22;22654;51.054;3.654;2022-07-10T03:19:57;10.90;99.90
36660;DHT22;22654;51.054;3.654;2022-07-10T03:22:23;10.90;99.90
36660;DHT22;22654;51.054;3.654;2022-07-10T03:24:49;10.80;99.90
36660;DHT22;22654;51.054;3.654;2022-07-10T03:27:15;10.90;99.90
36660;DHT22;22654;51.054;3.654;2022-07-10T03:29:41;10.90;99.90
36660;DHT22;22654;51.054;3.654;2022-07-10T03:32:07;10.90;99.90
36660;DHT22;22654;51.054;3.654;2022-07-10T03:34:33;10.90;99.90
36660;DHT22;22654;51.054;3.654;2022-07-10T03:37:00;10.90;99.90
36660;DHT22;22654;51.054;3.654;2022-07-10T03:39:26;10.90;99.90
36660;DHT22;22654;51.054;3.654;2022-07-10T03:41:52;10.90;99.90
36660;DHT22;22654;51.054;3.654;2022-07-10T03:44:18;10.90;99.90
36660;DHT22;22654;51.054;3.654;2022-07-10T03:46:43;10.90;99.90
36660;DHT22;22654;51.054;3.654;2022-07-10T03:49:09;10.90;99.90
36660;DHT22;22654;51.054;3.654;2022-07-10T03:51:35;10.90;99.90
36660;DHT22;22654;51.054;3.654;2022-07-10T03:54:01;10.90;99.90
36660;DHT22;22654;51.054;3.654;2022-07-10T03:56:27;10.90;99.90
36660;DHT22;22654;51.054;3.654;2022-07-10T03:59:11;11.00;99.90
36660;DHT22;22654;51.054;3.654;2022-07-10T04:01:37;11.00;99.90
36660;DHT22;22654;51.054;3.654;2022-07-10T04:04:03;11.00;99.90
36660;DHT22;22654;51.054;3.654;2022-07-10T04:06:29;11.10;99.90
36660;DHT22;22654;51.054;3.654;2022-07-10T04:08:54;11.50;99.90
36660;DHT22;22654;51.054;3.654;2022-07-10T04:11:21;11.90;99.90
36660;DHT22;22654;51.054;3.654;2022-07-10T04:13:46;12.10;99.90
36660;DHT22;22654;51.054;3.654;2022-07-10T04:16:12;12.30;99.90
36660;DHT22;22654;51.054;3.654;2022-07-10T04:18:39;12.20;99.90
36660;DHT22;22654;51.054;3.654;2022-07-10T04:21:06;12.00;99.90
36660;DHT22;22654;51.054;3.654;2022-07-10T04:23:35;11.80;99.90
36660;DHT22;22654;51.054;3.654;2022-07-10T04:26:01;11.90;99.90
36660;DHT22;22654;51.054;3.654;2022-07-10T04:28:27;12.10;99.90
36660;DHT22;22654;51.054;3.654;2022-07-10T04:30:53;12.10;99.90
36660;DHT22;22654;51.054;3.654;2022-07-10T04:33:18;12.10;99.90
36660;DHT22;22654;51.054;3.654;2022-07-10T04:35:44;12.10;99.90
36660;DHT22;22654;51.054;3.654;2022-07-10T04:38:10;12.20;99.90
36660;DHT22;22654;51.054;3.654;2022-07-10T04:40:36;12.10;99.90
36660;DHT22;22654;51.054;3.654;2022-07-10T04:43:01;12.10;99.90
36660;DHT22;22654;51.054;3.654;2022-07-10T04:45:27;12.10;99.90
36660;DHT22;22654;51.054;3.654;2022-07-10T04:47:53;12.10;99.90
36660;DHT22;22654;51.054;3.654;2022-07-10T04:50:19;12.10;99.90
36660;DHT22;22654;51.054;3.654;2022-07-10T04:52:45;12.20;99.90
36660;DHT22;22654;51.054;3.654;2022-07-10T04:55:10;12.20;99.90
36660;DHT22;22654;51.054;3.654;2022-07-10T04:57:36;12.30;99.90
36660;DHT22;22654;51.054;3.654;2022-07-10T05:00:03;12.30;99.90
36660;DHT22;22654;51.054;3.654;2022-07-10T05:02:29;12.40;99.90
36660;DHT22;22654;51.054;3.654;2022-07-10T05:04:55;12.50;99.90
36660;DHT22;22654;51.054;3.654;2022-07-10T05:07:20;12.50;99.90
36660;DHT22;22654;51.054;3.654;2022-07-10T05:09:46;12.60;99.90
36660;DHT22;22654;51.054;3.654;2022-07-10T05:12:12;12.70;99.90
36660;DHT22;22654;51.054;3.654;2022-07-10T05:14:38;12.80;99.90
36660;DHT22;22654;51.054;3.654;2022-07-10T05:17:04;12.90;99.90
36660;DHT22;22654;51.054;3.654;2022-07-10T05:19:29;13.20;99.90
36660;DHT22;22654;51.054;3.654;2022-07-10T05:21:55;13.50;99.90
36660;DHT22;22654;51.054;3.654;2022-07-10T05:24:21;13.40;99.90
36660;DHT22;22654;51.054;3.654;2022-07-10T05:26:47;13.40;99.90
36660;DHT22;22654;51.054;3.654;2022-07-10T05:29:13;13.60;99.90
36660;DHT22;22654;51.054;3.654;2022-07-10T05:31:39;13.80;99.90
36660;DHT22;22654;51.054;3.654;2022-07-10T05:34:04;13.90;99.90
36660;DHT22;22654;51.054;3.654;2022-07-10T05:36:31;14.00;99.90
36660;DHT22;22654;51.054;3.654;2022-07-10T05:38:56;14.20;99.90
36660;DHT22;22654;51.054;3.654;2022-07-10T05:41:22;14.70;99.90
36660;DHT22;22654;51.054;3.654;2022-07-10T05:43:48;15.60;99.90
36660;DHT22;22654;51.054;3.654;2022-07-10T05:46:14;17.10;99.90
36660;DHT22;22654;51.054;3.654;2022-07-10T05:48:40;19.40;99.90
36660;DHT22;22654;51.054;3.654;2022-07-10T05:51:06;21.40;99.90
36660;DHT22;22654;51.054;3.654;2022-07-10T05:53:32;22.20;99.90
36660;DHT22;22654;51.054;3.654;2022-07-10T05:56:01;21.70;99.90
36660;DHT22;22654;51.054;3.654;2022-07-10T05:58:27;20.90;99.90
36660;DHT22;22654;51.054;3.654;2022-07-10T06:00:53;20.10;99.90
36660;DHT22;22654;51.054;3.654;2022-07-10T06:03:19;19.50;99.90
36660;DHT22;22654;51.054;3.654;2022-07-10T06:05:47;19.30;99.90
36660;DHT22;22654;51.054;3.654;2022-07-10T06:08:13;19.20;99.90
36660;DHT22;22654;51.054;3.654;2022-07-10T06:10:39;19.00;99.90
36660;DHT22;22654;51.054;3.654;2022-07-10T06:13:10;18.90;99.90
36660;DHT22;22654;51.054;3.654;2022-07-10T06:15:36;19.10;99.90
36660;DHT22;22654;51.054;3.654;2022-07-10T06:18:12;19.20;99.90
36660;DHT22;22654;51.054;3.654;2022-07-10T06:20:38;18.90;99.90
36660;DHT22;22654;51.054;3.654;2022-07-10T06:23:03;18.70;99.90
36660;DHT22;22654;51.054;3.654;2022-07-10T06:25:39;18.50;99.90
36660;DHT22;22654;51.054;3.654;2022-07-10T06:28:05;18.80;99.90
36660;DHT22;22654;51.054;3.654;2022-07-10T06:30:30;19.10;99.90
36660;DHT22;22654;51.054;3.654;2022-07-10T06:32:56;19.10;99.90
36660;DHT22;22654;51.054;3.654;2022-07-10T06:35:22;19.50;99.90
36660;DHT22;22654;51.054;3.654;2022-07-10T06:37:48;20.30;99.90
36660;DHT22;22654;51.054;3.654;2022-07-10T06:40:14;22.30;99.90
36660;DHT22;22654;51.054;3.654;2022-07-10T06:42:40;24.80;99.90
36660;DHT22;22654;51.054;3.654;2022-07-10T06:45:09;26.70;94.60
36660;DHT22;22654;51.054;3.654;2022-07-10T06:47:35;28.10;92.80
36660;DHT22;22654;51.054;3.654;2022-07-10T06:50:20;29.00;90.50
36660;DHT22;22654;51.054;3.654;2022-07-10T06:52:47;29.70;86.60
36660;DHT22;22654;51.054;3.654;2022-07-10T06:55:13;29.70;86.70
36660;DHT22;22654;51.054;3.654;2022-07-10T06:57:39;30.30;83.40
36660;DHT22;22654;51.054;3.654;2022-07-10T07:00:06;30.90;80.20
36660;DHT22;22654;51.054;3.654;2022-07-10T07:02:32;31.20;79.70
36660;DHT22;22654;51.054;3.654;2022-07-10T07:04:58;31.70;77.60
36660;DHT22;22654;51.054;3.654;2022-07-10T07:07:24;32.10;75.80
36660;DHT22;22654;51.054;3.654;2022-07-10T07:09:50;32.10;75.70
36660;DHT22;22654;51.054;3.654;2022-07-10T07:12:16;32.40;75.30
36660;DHT22;22654;51.054;3.654;2022-07-10T07:14:46;33.00;72.90
36660;DHT22;22654;51.054;3.654;2022-07-10T07:17:15;33.00;72.40
36660;DHT22;22654;51.054;3.654;2022-07-10T07:19:51;32.50;71.60
36660;DHT22;22654;51.054;3.654;2022-07-10T07:22:36;31.80;72.40
36660;DHT22;22654;51.054;3.654;2022-07-10T07:25:21;31.40;72.50
36660;DHT22;22654;51.054;3.654;2022-07-10T07:27:47;30.60;73.80
36660;DHT22;22654;51.054;3.654;2022-07-10T07:30:14;31.00;73.70
36660;DHT22;22654;51.054;3.654;2022-07-10T07:32:41;31.80;73.20
36660;DHT22;22654;51.054;3.654;2022-07-10T07:35:08;31.90;71.80
36660;DHT22;22654;51.054;3.654;2022-07-10T07:37:47;31.80;70.80
36660;DHT22;22654;51.054;3.654;2022-07-10T07:40:15;30.90;72.10
36660;DHT22;22654;51.054;3.654;2022-07-10T07:42:41;30.10;73.20
36660;DHT22;22654;51.054;3.654;2022-07-10T07:45:08;29.00;75.10
36660;DHT22;22654;51.054;3.654;2022-07-10T07:47:48;28.30;76.60
36660;DHT22;22654;51.054;3.654;2022-07-10T07:50:16;28.50;76.60
36660;DHT22;22654;51.054;3.654;2022-07-10T07:52:43;28.70;76.00
36660;DHT22;22654;51.054;3.654;2022-07-10T07:55:09;28.90;75.50
36660;DHT22;22654;51.054;3.654;2022-07-10T07:57:36;28.10;76.70
36660;DHT22;22654;51.054;3.654;2022-07-10T08:00:06;27.80;77.30
36660;DHT22;22654;51.054;3.654;2022-07-10T08:02:38;28.70;76.60
36660;DHT22;22654;51.054;3.654;2022-07-10T08:05:04;29.10;76.40
36660;DHT22;22654;51.054;3.654;2022-07-10T08:07:41;28.90;75.90
36660;DHT22;22654;51.054;3.654;2022-07-10T08:10:13;28.50;76.60
36660;DHT22;22654;51.054;3.654;2022-07-10T08:12:40;28.20;76.20
36660;DHT22;22654;51.054;3.654;2022-07-10T08:15:11;28.10;77.10
36660;DHT22;22654;51.054;3.654;2022-07-10T08:17:37;28.20;76.90
36660;DHT22;22654;51.054;3.654;2022-07-10T08:20:04;28.20;77.00
36660;DHT22;22654;51.054;3.654;2022-07-10T08:22:31;27.80;77.70
36660;DHT22;22654;51.054;3.654;2022-07-10T08:24:56;27.00;78.40
36660;DHT22;22654;51.054;3.654;2022-07-10T08:27:23;26.30;80.70
36660;DHT22;22654;51.054;3.654;2022-07-10T08:29:49;26.40;81.30
36660;DHT22;22654;51.054;3.654;2022-07-10T08:32:15;27.20;80.00
36660;DHT22;22654;51.054;3.654;2022-07-10T08:34:41;27.70;77.80
36660;DHT22;22654;51.054;3.654;2022-07-10T08:37:06;28.00;78.40
36660;DHT22;22654;51.054;3.654;2022-07-10T08:39:33;27.80;78.60
36660;DHT22;22654;51.054;3.654;2022-07-10T08:41:59;27.40;79.60
36660;DHT22;22654;51.054;3.654;2022-07-10T08:44:28;26.90;80.30
36660;DHT22;22654;51.054;3.654;2022-07-10T08:46:54;26.40;80.70
36660;DHT22;22654;51.054;3.654;2022-07-10T08:49:20;25.80;82.50
36660;DHT22;22654;51.054;3.654;2022-07-10T08:52:23;25.40;82.80
36660;DHT22;22654;51.054;3.654;2022-07-10T08:54:50;25.20;84.10
36660;DHT22;22654;51.054;3.654;2022-07-10T08:57:17;25.80;84.00
36660;DHT22;22654;51.054;3.654;2022-07-10T08:59:44;26.50;82.90
36660;DHT22;22654;51.054;3.654;2022-07-10T09:02:09;27.00;80.90
36660;DHT22;22654;51.054;3.654;2022-07-10T09:04:35;27.20;80.40
36660;DHT22;22654;51.054;3.654;2022-07-10T09:07:01;27.10;80.50
36660;DHT22;22654;51.054;3.654;2022-07-10T09:09:27;26.60;80.30
36660;DHT22;22654;51.054;3.654;2022-07-10T09:11:57;26.10;81.70
36660;DHT22;22654;51.054;3.654;2022-07-10T09:14:24;25.70;83.00
36660;DHT22;22654;51.054;3.654;2022-07-10T09:16:57;25.70;83.40
36660;DHT22;22654;51.054;3.654;2022-07-10T09:19:32;25.50;84.30
36660;DHT22;22654;51.054;3.654;2022-07-10T09:22:10;25.20;85.20
36660;DHT22;22654;51.054;3.654;2022-07-10T09:24:46;25.10;85.00
36660;DHT22;22654;51.054;3.654;2022-07-10T09:27:14;25.30;83.80
36660;DHT22;22654;51.054;3.654;2022-07-10T09:29:47;25.80;84.30
36660;DHT22;22654;51.054;3.654;2022-07-10T09:32:15;26.80;83.30
36660;DHT22;22654;51.054;3.654;2022-07-10T09:34:50;26.90;80.50
36660;DHT22;22654;51.054;3.654;2022-07-10T09:37:40;26.80;80.80
36660;DHT22;22654;51.054;3.654;2022-07-10T09:40:07;26.20;81.30
36660;DHT22;22654;51.054;3.654;2022-07-10T09:42:41;26.20;81.80
36660;DHT22;22654;51.054;3.654;2022-07-10T09:47:57;27.70;79.70
36660;DHT22;22654;51.054;3.654;2022-07-10T09:50:31;28.30;78.50
36660;DHT22;22654;51.054;3.654;2022-07-10T09:52:59;28.40;78.60
36660;DHT22;22654;51.054;3.654;2022-07-10T09:55:27;27.70;77.90
36660;DHT22;22654;51.054;3.654;2022-07-10T09:58:03;27.30;79.10
36660;DHT22;22654;51.054;3.654;2022-07-10T10:00:36;27.30;79.90
36660;DHT22;22654;51.054;3.654;2022-07-10T10:03:04;27.00;80.20
36660;DHT22;22654;51.054;3.654;2022-07-10T10:05:54;27.30;81.00
36660;DHT22;22654;51.054;3.654;2022-07-10T10:11:20;26.80;81.40
36660;DHT22;22654;51.054;3.654;2022-07-10T10:13:48;26.90;81.60
36660;DHT22;22654;51.054;3.654;2022-07-10T10:16:15;26.90;80.70
36660;DHT22;22654;51.054;3.654;2022-07-10T10:18:44;27.00;81.50
36660;DHT22;22654;51.054;3.654;2022-07-10T10:21:30;27.10;80.60
36660;DHT22;22654;51.054;3.654;2022-07-10T10:23:56;27.60;80.40
36660;DHT22;22654;51.054;3.654;2022-07-10T10:26:23;27.50;80.00
36660;DHT22;22654;51.054;3.654;2022-07-10T10:28:52;27.70;79.90
36660;DHT22;22654;51.054;3.654;2022-07-10T10:31:20;27.70;79.00
36660;DHT22;22654;51.054;3.654;2022-07-10T10:33:47;27.20;79.60
36660;DHT22;22654;51.054;3.654;2022-07-10T10:36:57;26.80;81.40
36660;DHT22;22654;51.054;3.654;2022-07-10T10:39:18;26.70;80.80
36660;DHT22;22654;51.054;3.654;2022-07-10T10:41:52;26.30;81.30
36660;DHT22;22654;51.054;3.654;2022-07-10T10:47:04;25.70;83.30
36660;DHT22;22654;51.054;3.654;2022-07-10T10:52:16;25.70;84.30
36660;DHT22;22654;51.054;3.654;2022-07-10T10:59:59;26.80;81.30
36660;DHT22;22654;51.054;3.654;2022-07-10T11:02:31;26.90;81.20
36660;DHT22;22654;51.054;3.654;2022-07-10T11:13:03;26.50;81.00
36660;DHT22;22654;51.054;3.654;2022-07-10T11:15:30;26.90;80.90
36660;DHT22;22654;51.054;3.654;2022-07-10T11:18:19;27.10;80.70
36660;DHT22;22654;51.054;3.654;2022-07-10T11:20:48;27.00;81.10
36660;DHT22;22654;51.054;3.654;2022-07-10T11:26:23;25.90;83.10
36660;DHT22;22654;51.054;3.654;2022-07-10T11:28:54;25.90;82.40
36660;DHT22;22654;51.054;3.654;2022-07-10T11:31:25;25.90;83.20
36660;DHT22;22654;51.054;3.654;2022-07-10T11:33:53;26.30;81.60
36660;DHT22;22654;51.054;3.654;2022-07-10T11:36:21;26.60;82.70
36660;DHT22;22654;51.054;3.654;2022-07-10T11:39:01;26.80;81.50
36660;DHT22;22654;51.054;3.654;2022-07-10T11:41:28;26.80;82.30
36660;DHT22;22654;51.054;3.654;2022-07-10T11:43:55;26.60;82.90
36660;DHT22;22654;51.054;3.654;2022-07-10T11:46:24;26.60;81.80
36660;DHT22;22654;51.054;3.654;2022-07-10T11:48:51;26.30;83.20
36660;DHT22;22654;51.054;3.654;2022-07-10T11:51:24;26.00;83.60
36660;DHT22;22654;51.054;3.654;2022-07-10T11:54:04;25.60;83.20
36660;DHT22;22654;51.054;3.654;2022-07-10T11:56:35;25.40;84.30
36660;DHT22;22654;51.054;3.654;2022-07-10T11:59:08;25.30;84.70
36660;DHT22;22654;51.054;3.654;2022-07-10T12:01:41;25.60;85.00
36660;DHT22;22654;51.054;3.654;2022-07-10T12:04:09;26.20;83.90
36660;DHT22;22654;51.054;3.654;2022-07-10T12:06:37;26.30;82.90
36660;DHT22;22654;51.054;3.654;2022-07-10T12:09:04;26.10;82.70
36660;DHT22;22654;51.054;3.654;2022-07-10T12:11:30;25.90;84.10
36660;DHT22;22654;51.054;3.654;2022-07-10T12:14:16;26.00;84.90
36660;DHT22;22654;51.054;3.654;2022-07-10T12:16:46;25.80;84.70
36660;DHT22;22654;51.054;3.654;2022-07-10T12:19:14;25.60;84.40
36660;DHT22;22654;51.054;3.654;2022-07-10T12:21:44;25.40;84.40
36660;DHT22;22654;51.054;3.654;2022-07-10T12:24:12;25.40;85.00
36660;DHT22;22654;51.054;3.654;2022-07-10T12:26:40;25.40;86.30
36660;DHT22;22654;51.054;3.654;2022-07-10T12:29:18;25.00;86.20
36660;DHT22;22654;51.054;3.654;2022-07-10T12:31:44;24.80;86.90
36660;DHT22;22654;51.054;3.654;2022-07-10T12:34:11;24.70;87.30
36660;DHT22;22654;51.054;3.654;2022-07-10T12:39:17;24.70;88.70
36660;DHT22;22654;51.054;3.654;2022-07-10T12:42:24;25.20;88.00
36660;DHT22;22654;51.054;3.654;2022-07-10T12:44:51;25.70;86.70
36660;DHT22;22654;51.054;3.654;2022-07-10T12:47:18;25.80;85.40
36660;DHT22;22654;51.054;3.654;2022-07-10T12:50:05;25.40;85.30
36660;DHT22;22654;51.054;3.654;2022-07-10T12:52:34;25.40;86.50
36660;DHT22;22654;51.054;3.654;2022-07-10T12:57:57;25.20;87.00
36660;DHT22;22654;51.054;3.654;2022-07-10T13:00:24;24.90;87.00
36660;DHT22;22654;51.054;3.654;2022-07-10T13:03:06;24.80;86.40
36660;DHT22;22654;51.054;3.654;2022-07-10T13:05:42;24.90;87.80
36660;DHT22;22654;51.054;3.654;2022-07-10T13:08:21;25.20;85.60
36660;DHT22;22654;51.054;3.654;2022-07-10T13:10:53;25.40;87.20
36660;DHT22;22654;51.054;3.654;2022-07-10T13:13:19;25.30;86.40
36660;DHT22;22654;51.054;3.654;2022-07-10T13:15:46;25.30;87.30
36660;DHT22;22654;51.054;3.654;2022-07-10T13:18:20;25.30;86.40
36660;DHT22;22654;51.054;3.654;2022-07-10T13:20:48;25.60;88.00
36660;DHT22;22654;51.054;3.654;2022-07-10T13:23:14;25.60;87.20
36660;DHT22;22654;51.054;3.654;2022-07-10T13:25:41;25.60;85.70
36660;DHT22;22654;51.054;3.654;2022-07-10T13:28:09;25.60;85.70
36660;DHT22;22654;51.054;3.654;2022-07-10T13:30:38;25.80;84.70
36660;DHT22;22654;51.054;3.654;2022-07-10T13:33:07;25.80;84.60
36660;DHT22;22654;51.054;3.654;2022-07-10T13:35:33;25.70;85.90
36660;DHT22;22654;51.054;3.654;2022-07-10T13:38:00;25.60;86.20
36660;DHT22;22654;51.054;3.654;2022-07-10T13:40:29;25.80;86.80
36660;DHT22;22654;51.054;3.654;2022-07-10T13:42:56;26.20;84.40
36660;DHT22;22654;51.054;3.654;2022-07-10T13:45:22;26.20;85.40
36660;DHT22;22654;51.054;3.654;2022-07-10T13:47:50;26.40;85.20
36660;DHT22;22654;51.054;3.654;2022-07-10T13:50:19;26.60;83.00
36660;DHT22;22654;51.054;3.654;2022-07-10T13:52:45;26.80;82.30
36660;DHT22;22654;51.054;3.654;2022-07-10T13:55:11;26.70;82.50
36660;DHT22;22654;51.054;3.654;2022-07-10T13:57:38;26.90;84.10
36660;DHT22;22654;51.054;3.654;2022-07-10T14:00:05;26.60;83.30
36660;DHT22;22654;51.054;3.654;2022-07-10T14:02:37;26.40;84.40
36660;DHT22;22654;51.054;3.654;2022-07-10T14:05:04;26.50;85.20
36660;DHT22;22654;51.054;3.654;2022-07-10T14:07:30;26.80;83.80
36660;DHT22;22654;51.054;3.654;2022-07-10T14:09:56;26.60;84.10
36660;DHT22;22654;51.054;3.654;2022-07-10T14:12:22;26.30;84.20
36660;DHT22;22654;51.054;3.654;2022-07-10T14:14:48;26.10;84.60
36660;DHT22;22654;51.054;3.654;2022-07-10T14:17:13;25.80;84.20
36660;DHT22;22654;51.054;3.654;2022-07-10T14:19:39;25.70;85.40
36660;DHT22;22654;51.054;3.654;2022-07-10T14:22:07;25.80;85.40
36660;DHT22;22654;51.054;3.654;2022-07-10T14:24:33;25.90;85.30
36660;DHT22;22654;51.054;3.654;2022-07-10T14:26:59;26.00;83.80
36660;DHT22;22654;51.054;3.654;2022-07-10T14:29:25;26.10;83.40
36660;DHT22;22654;51.054;3.654;2022-07-10T14:31:51;26.20;83.80
36660;DHT22;22654;51.054;3.654;2022-07-10T14:34:18;26.10;83.80
36660;DHT22;22654;51.054;3.654;2022-07-10T14:36:46;26.20;84.50
36660;DHT22;22654;51.054;3.654;2022-07-10T14:39:12;26.30;83.60
36660;DHT22;22654;51.054;3.654;2022-07-10T14:41:38;26.30;83.20
36660;DHT22;22654;51.054;3.654;2022-07-10T14:44:05;26.20;82.80
36660;DHT22;22654;51.054;3.654;2022-07-10T14:46:32;25.90;83.70
36660;DHT22;22654;51.054;3.654;2022-07-10T14:48:58;25.80;82.80
36660;DHT22;22654;51.054;3.654;2022-07-10T14:51:23;25.90;84.20
36660;DHT22;22654;51.054;3.654;2022-07-10T14:53:49;25.90;83.70
36660;DHT22;22654;51.054;3.654;2022-07-10T14:56:15;26.20;82.10
36660;DHT22;22654;51.054;3.654;2022-07-10T14:58:42;26.50;82.80
36660;DHT22;22654;51.054;3.654;2022-07-10T15:01:08;26.60;81.30
36660;DHT22;22654;51.054;3.654;2022-07-10T15:03:34;26.60;82.40
36660;DHT22;22654;51.054;3.654;2022-07-10T15:06:02;26.50;81.60
36660;DHT22;22654;51.054;3.654;2022-07-10T15:08:30;26.60;81.00
36660;DHT22;22654;51.054;3.654;2022-07-10T15:10:57;26.60;81.50
36660;DHT22;22654;51.054;3.654;2022-07-10T15:13:25;26.70;81.10
36660;DHT22;22654;51.054;3.654;2022-07-10T15:15:51;26.80;80.10
36660;DHT22;22654;51.054;3.654;2022-07-10T15:18:18;27.30;79.30
36660;DHT22;22654;51.054;3.654;2022-07-10T15:20:45;27.50;79.50
36660;DHT22;22654;51.054;3.654;2022-07-10T15:23:11;27.60;79.00
36660;DHT22;22654;51.054;3.654;2022-07-10T15:25:41;28.00;78.40
36660;DHT22;22654;51.054;3.654;2022-07-10T15:28:10;28.10;79.10
36660;DHT22;22654;51.054;3.654;2022-07-10T15:30:37;28.90;77.70
36660;DHT22;22654;51.054;3.654;2022-07-10T15:33:04;29.00;75.60
36660;DHT22;22654;51.054;3.654;2022-07-10T15:35:31;29.30;75.80
36660;DHT22;22654;51.054;3.654;2022-07-10T15:37:57;29.50;74.30
36660;DHT22;22654;51.054;3.654;2022-07-10T15:40:25;29.60;74.80
36660;DHT22;22654;51.054;3.654;2022-07-10T15:42:51;29.00;75.30
36660;DHT22;22654;51.054;3.654;2022-07-10T15:45:17;28.90;75.70
36660;DHT22;22654;51.054;3.654;2022-07-10T15:47:43;29.40;76.00
36660;DHT22;22654;51.054;3.654;2022-07-10T15:50:09;30.00;74.30
36660;DHT22;22654;51.054;3.654;2022-07-10T15:52:35;29.90;74.00
36660;DHT22;22654;51.054;3.654;2022-07-10T15:55:00;29.80;74.10
36660;DHT22;22654;51.054;3.654;2022-07-10T15:57:26;29.10;75.30
36660;DHT22;22654;51.054;3.654;2022-07-10T15:59:52;28.40;76.70
36660;DHT22;22654;51.054;3.654;2022-07-10T16:02:18;28.50;76.30
36660;DHT22;22654;51.054;3.654;2022-07-10T16:04:44;28.90;75.90
36660;DHT22;22654;51.054;3.654;2022-07-10T16:07:10;30.00;74.40
36660;DHT22;22654;51.054;3.654;2022-07-10T16:09:36;29.30;75.20